createdAt,value
2022-12-08T00:00:05.943Z,5.67
2022-12-08T00:03:00.305Z,5.73
2022-12-08T00:05:46.915Z,6.73
2022-12-08T00:08:32.464Z,5.80
2022-12-08T00:11:00.986Z,5.93
2022-12-08T00:13:29.259Z,6.30
2022-12-08T00:16:02.529Z,7.57
2022-12-08T00:18:30.815Z,7.77
2022-12-08T00:21:01.129Z,6.67
2022-12-08T00:23:29.632Z,7.80
2022-12-08T00:25:58.470Z,8.37
2022-12-08T00:28:27.019Z,8.43
2022-12-08T00:30:55.546Z,7.33
2022-12-08T00:33:25.646Z,8.20
2022-12-08T00:35:54.232Z,7.87
2022-12-08T00:38:22.504Z,5.40
2022-12-08T00:40:51.084Z,7.30
2022-12-08T00:43:19.390Z,8.23
2022-12-08T00:45:48.008Z,7.43
2022-12-08T00:48:16.573Z,8.23
2022-12-08T00:50:46.785Z,7.27
2022-12-08T00:53:15.240Z,7.77
2022-12-08T00:55:44.437Z,7.43
2022-12-08T00:58:12.749Z,5.10
2022-12-08T01:00:41.743Z,6.87
2022-12-08T01:03:11.351Z,7.10
2022-12-08T01:05:40.576Z,7.50
2022-12-08T01:08:10.654Z,5.57
2022-12-08T01:10:39.557Z,5.77
2022-12-08T01:13:07.822Z,7.27
2022-12-08T01:15:36.454Z,6.67
2022-12-08T01:18:04.869Z,5.43
2022-12-08T01:20:33.462Z,5.67
2022-12-08T01:23:01.767Z,5.20
2022-12-08T01:25:31.732Z,6.07
2022-12-08T01:28:00.017Z,5.50
2022-12-08T01:30:28.725Z,6.13
2022-12-08T01:32:57.318Z,6.90
2022-12-08T01:35:25.930Z,5.77
2022-12-08T01:37:54.196Z,6.53
2022-12-08T01:40:23.084Z,6.00
2022-12-08T01:42:53.000Z,7.00
2022-12-08T01:45:25.863Z,5.77
2022-12-08T01:47:58.511Z,6.10
2022-12-08T01:50:29.236Z,5.90
2022-12-08T01:53:00.494Z,5.97
2022-12-08T01:55:34.488Z,6.53
2022-12-08T01:58:09.386Z,5.20
2022-12-08T02:00:37.990Z,7.83
2022-12-08T02:03:10.255Z,5.87
2022-12-08T02:05:41.149Z,5.50
2022-12-08T02:08:12.499Z,5.93
2022-12-08T02:10:43.478Z,5.60
2022-12-08T02:13:17.378Z,5.87
2022-12-08T02:15:55.577Z,4.97
2022-12-08T02:19:07.991Z,6.33
2022-12-08T02:21:47.660Z,8.70
2022-12-08T02:24:24.434Z,5.90
2022-12-08T02:27:21.746Z,7.40
2022-12-08T02:30:22.068Z,7.03
2022-12-08T02:33:27.052Z,5.80
2022-12-08T02:36:00.878Z,5.10
2022-12-08T02:38:41.336Z,5.73
2022-12-08T02:41:20.561Z,5.97
2022-12-08T02:43:54.627Z,6.63
2022-12-08T02:46:28.476Z,5.63
2022-12-08T02:48:58.371Z,6.13
2022-12-08T02:51:28.054Z,5.80
2022-12-08T02:53:56.944Z,5.20
2022-12-08T02:56:42.712Z,4.67
2022-12-08T02:59:29.572Z,6.07
2022-12-08T03:02:16.735Z,5.80
2022-12-08T03:04:51.694Z,4.90
2022-12-08T03:07:25.012Z,7.03
2022-12-08T03:09:59.723Z,5.20
2022-12-08T03:12:32.964Z,5.03
2022-12-08T03:15:07.450Z,5.87
2022-12-08T03:17:37.504Z,5.47
2022-12-08T03:20:10.410Z,6.60
2022-12-08T03:22:42.524Z,5.80
2022-12-08T03:25:14.494Z,6.70
2022-12-08T03:27:43.159Z,8.73
2022-12-08T03:30:12.650Z,7.17
2022-12-08T03:32:47.759Z,7.20
2022-12-08T03:35:21.466Z,6.53
2022-12-08T03:37:51.224Z,6.50
2022-12-08T03:40:21.389Z,8.30
2022-12-08T03:42:49.630Z,6.77
2022-12-08T03:45:18.313Z,7.47
2022-12-08T03:47:46.656Z,8.50
2022-12-08T03:50:15.367Z,8.03
2022-12-08T03:52:43.970Z,8.07
2022-12-08T03:55:14.060Z,7.70
2022-12-08T03:57:42.537Z,7.53
2022-12-08T04:00:15.641Z,7.70
2022-12-08T04:02:44.219Z,6.73
2022-12-08T04:05:12.861Z,8.17
2022-12-08T04:07:41.222Z,7.57
2022-12-08T04:10:10.918Z,7.77
2022-12-08T04:12:40.857Z,8.93
2022-12-08T04:15:10.964Z,7.33
2022-12-08T04:17:39.598Z,9.10
2022-12-08T04:20:08.892Z,7.97
2022-12-08T04:22:37.211Z,8.53
2022-12-08T04:25:06.688Z,9.07
2022-12-08T04:27:34.973Z,10.47
2022-12-08T04:30:05.804Z,8.90
2022-12-08T04:32:34.343Z,8.60
2022-12-08T04:35:02.929Z,8.10
2022-12-08T04:37:31.184Z,7.63
2022-12-08T04:39:59.767Z,7.50
2022-12-08T04:42:28.075Z,7.83
2022-12-08T04:44:56.598Z,6.60
2022-12-08T04:47:26.438Z,7.10
2022-12-08T04:49:55.356Z,7.13
2022-12-08T04:52:23.816Z,6.63
2022-12-08T04:54:52.426Z,6.80
2022-12-08T04:57:20.911Z,7.03
2022-12-08T04:59:49.551Z,6.30
2022-12-08T05:02:18.455Z,6.13
2022-12-08T05:04:48.828Z,9.23
2022-12-08T05:07:17.260Z,8.47
2022-12-08T05:09:46.037Z,8.13
2022-12-08T05:12:14.602Z,8.83
2022-12-08T05:14:43.398Z,8.47
2022-12-08T05:17:11.970Z,6.80
2022-12-08T05:19:40.836Z,7.80
2022-12-08T05:22:10.615Z,7.27
2022-12-08T05:24:45.591Z,7.57
2022-12-08T05:27:15.856Z,9.40
2022-12-08T05:29:44.746Z,9.70
2022-12-08T05:32:13.011Z,10.43
2022-12-08T05:34:41.607Z,13.00
2022-12-08T05:37:11.242Z,15.33
2022-12-08T05:39:39.765Z,13.37
2022-12-08T05:42:08.032Z,9.70
2022-12-08T05:44:36.677Z,8.03
2022-12-08T05:47:05.396Z,8.63
2022-12-08T05:49:34.183Z,8.80
2022-12-08T05:52:02.548Z,8.23
2022-12-08T05:54:32.608Z,8.47
2022-12-08T05:57:01.387Z,7.97
2022-12-08T05:59:29.945Z,8.17
2022-12-08T06:01:58.471Z,6.33
2022-12-08T06:04:27.229Z,7.70
2022-12-08T06:06:55.737Z,9.33
2022-12-08T06:09:24.297Z,7.60
2022-12-08T06:11:54.142Z,7.97
2022-12-08T06:14:23.179Z,7.67
2022-12-08T06:16:51.650Z,7.43
2022-12-08T06:19:20.582Z,7.10
2022-12-08T06:21:48.920Z,6.77
2022-12-08T06:24:17.649Z,7.40
2022-12-08T06:26:46.922Z,7.10
2022-12-08T06:29:17.258Z,9.07
2022-12-08T06:31:45.549Z,7.77
2022-12-08T06:34:14.116Z,9.67
2022-12-08T06:36:42.580Z,10.40
2022-12-08T06:39:11.402Z,9.50
2022-12-08T06:41:53.560Z,8.47
2022-12-08T06:44:23.584Z,11.53
2022-12-08T06:46:51.945Z,10.70
2022-12-08T06:49:20.549Z,9.70
2022-12-08T06:51:48.881Z,9.97
2022-12-08T06:54:17.437Z,9.00
2022-12-08T06:56:45.932Z,9.20
2022-12-08T06:59:14.478Z,10.40
2022-12-08T07:01:44.166Z,10.47
2022-12-08T07:04:12.790Z,9.17
2022-12-08T07:06:41.342Z,9.47
2022-12-08T07:09:10.016Z,8.53
2022-12-08T07:11:39.546Z,8.83
2022-12-08T07:14:08.151Z,8.57
2022-12-08T07:16:36.470Z,9.07
2022-12-08T07:19:06.669Z,8.30
2022-12-08T07:21:35.071Z,9.10
2022-12-08T07:24:03.691Z,9.40
2022-12-08T07:26:32.247Z,8.50
2022-12-08T07:29:01.524Z,8.90
2022-12-08T07:31:30.026Z,8.63
2022-12-08T07:33:59.169Z,8.07
2022-12-08T07:36:29.033Z,9.30
2022-12-08T07:38:57.907Z,9.07
2022-12-08T07:41:27.059Z,10.33
2022-12-08T07:43:57.357Z,9.77
2022-12-08T07:46:27.077Z,9.80
2022-12-08T07:48:57.258Z,9.57
2022-12-08T07:51:26.022Z,9.50
2022-12-08T07:53:55.958Z,10.50
2022-12-08T07:56:24.642Z,8.73
2022-12-08T07:58:53.305Z,9.80
2022-12-08T08:01:24.749Z,10.00
2022-12-08T08:03:54.199Z,8.53
2022-12-08T08:06:22.573Z,8.70
2022-12-08T08:08:51.363Z,9.40
2022-12-08T08:11:21.963Z,8.10
2022-12-08T08:13:51.254Z,8.37
2022-12-08T08:16:20.526Z,7.40
2022-12-08T08:18:50.271Z,8.57
2022-12-08T08:21:45.638Z,7.57
2022-12-08T08:24:10.049Z,7.47
2022-12-08T08:26:39.729Z,7.30
2022-12-08T08:29:08.476Z,7.40
2022-12-08T08:31:36.786Z,8.40
2022-12-08T08:34:06.341Z,10.07
2022-12-08T08:36:34.892Z,8.73
2022-12-08T08:39:03.533Z,10.07
2022-12-08T08:41:32.193Z,10.83
2022-12-08T08:44:02.234Z,11.30
2022-12-08T08:46:31.954Z,11.50
2022-12-08T08:49:00.530Z,12.57
2022-12-08T08:51:29.008Z,11.23
2022-12-08T08:53:58.140Z,10.93
2022-12-08T08:56:26.669Z,13.00
2022-12-08T08:58:55.601Z,12.10
2022-12-08T09:01:26.875Z,10.20
2022-12-08T09:03:56.674Z,11.03
2022-12-08T09:06:25.853Z,11.33
2022-12-08T09:08:54.601Z,11.77
2022-12-08T09:11:23.357Z,12.27
2022-12-08T09:13:53.203Z,11.73
2022-12-08T09:16:22.333Z,13.13
2022-12-08T09:18:52.945Z,11.40
2022-12-08T09:21:24.590Z,10.53
2022-12-08T09:23:55.789Z,12.03
2022-12-08T09:26:24.793Z,13.43
2022-12-08T09:28:54.945Z,13.77
2022-12-08T09:31:24.516Z,12.03
2022-12-08T09:33:54.614Z,14.50
2022-12-08T09:36:22.974Z,12.77
2022-12-08T09:38:53.663Z,12.53
2022-12-08T09:41:38.915Z,14.00
2022-12-08T09:44:39.272Z,11.97
2022-12-08T09:47:19.381Z,12.77
2022-12-08T09:49:54.169Z,11.87
2022-12-08T09:52:26.423Z,12.93
2022-12-08T09:55:00.039Z,12.00
2022-12-08T09:57:30.337Z,11.30
2022-12-08T10:00:05.767Z,11.33
2022-12-08T10:02:34.566Z,15.93
2022-12-08T10:05:04.680Z,10.93
2022-12-08T10:07:41.922Z,11.87
2022-12-08T10:10:23.627Z,11.83
2022-12-08T10:12:58.758Z,11.20
2022-12-08T10:15:40.790Z,11.40
2022-12-08T10:18:16.133Z,13.40
2022-12-08T10:20:48.433Z,11.83
2022-12-08T10:23:25.506Z,12.10
2022-12-08T10:25:59.886Z,12.07
2022-12-08T10:28:28.201Z,13.00
2022-12-08T10:30:56.876Z,11.93
2022-12-08T10:33:25.462Z,11.03
2022-12-08T10:35:58.383Z,12.03
2022-12-08T10:38:31.069Z,11.70
2022-12-08T10:41:05.513Z,11.47
2022-12-08T10:43:35.188Z,11.67
2022-12-08T10:46:12.320Z,11.23
2022-12-08T10:48:50.408Z,12.57
2022-12-08T10:51:36.639Z,11.53
2022-12-08T10:54:06.135Z,12.40
2022-12-08T10:56:34.820Z,11.63
2022-12-08T10:59:12.869Z,12.30
2022-12-08T11:01:42.519Z,13.53
2022-12-08T11:04:18.056Z,11.10
2022-12-08T11:06:49.570Z,12.03
2022-12-08T11:09:38.232Z,11.23
2022-12-08T11:12:14.707Z,11.03
2022-12-08T11:14:50.862Z,10.70
2022-12-08T11:17:27.253Z,12.47
2022-12-08T11:20:02.673Z,10.30
2022-12-08T11:22:34.523Z,11.90
2022-12-08T11:25:11.392Z,11.33
2022-12-08T11:27:43.413Z,10.87
2022-12-08T11:30:17.070Z,12.20
2022-12-08T11:32:48.630Z,11.73
2022-12-08T11:35:24.786Z,10.63
2022-12-08T11:38:13.483Z,12.03
2022-12-08T11:40:46.380Z,11.97
2022-12-08T11:43:19.326Z,13.20
2022-12-08T11:45:51.043Z,11.10
2022-12-08T11:48:32.978Z,12.77
2022-12-08T11:51:06.576Z,12.47
2022-12-08T11:53:44.621Z,11.80
2022-12-08T11:56:20.024Z,11.17
2022-12-08T11:58:53.085Z,11.70
2022-12-08T12:01:23.156Z,11.57
2022-12-08T12:04:00.620Z,11.43
2022-12-08T12:06:55.075Z,10.60
2022-12-08T12:09:37.723Z,10.27
2022-12-08T12:12:15.781Z,10.77
2022-12-08T12:15:14.275Z,9.70
2022-12-08T12:17:47.206Z,9.57
2022-12-08T12:20:21.100Z,10.47
2022-12-08T12:22:57.634Z,11.43
2022-12-08T12:25:29.229Z,9.83
2022-12-08T12:28:01.986Z,10.77
2022-12-08T12:30:49.857Z,10.70
2022-12-08T12:33:19.571Z,11.10
2022-12-08T12:35:49.355Z,11.40
2022-12-08T12:38:43.465Z,10.03
2022-12-08T12:41:16.361Z,9.70
2022-12-08T12:44:25.202Z,10.17
2022-12-08T12:46:59.591Z,10.80
2022-12-08T12:50:16.044Z,11.73
2022-12-08T12:52:46.440Z,10.43
2022-12-08T12:55:49.678Z,10.63
2022-12-08T12:58:36.942Z,10.27
2022-12-08T13:01:56.406Z,10.10
2022-12-08T13:04:34.657Z,10.60
2022-12-08T13:07:03.177Z,10.80
2022-12-08T13:09:38.211Z,11.30
2022-12-08T13:12:12.382Z,11.13
2022-12-08T13:14:49.857Z,9.77
2022-12-08T13:17:26.214Z,10.13
2022-12-08T13:19:58.032Z,10.80
2022-12-08T13:22:49.149Z,10.87
2022-12-08T13:25:57.154Z,9.80
2022-12-08T13:28:29.119Z,10.93
2022-12-08T13:31:00.368Z,10.70
2022-12-08T13:33:32.654Z,9.93
2022-12-08T13:36:07.351Z,9.60
2022-12-08T13:38:38.221Z,10.63
2022-12-08T13:41:14.813Z,10.43
2022-12-08T13:44:20.215Z,9.40
2022-12-08T13:53:48.927Z,12.73
2022-12-08T13:56:51.455Z,11.00
2022-12-08T13:58:18.881Z,10.57
2022-12-08T14:01:01.566Z,9.97
2022-12-08T14:03:32.040Z,10.97
2022-12-08T14:06:12.398Z,9.80
2022-12-08T14:09:03.729Z,10.67
2022-12-08T14:11:36.476Z,11.27
2022-12-08T14:14:07.823Z,10.83
2022-12-08T14:16:40.138Z,11.07
2022-12-08T14:19:20.681Z,12.03
2022-12-08T14:22:00.420Z,11.07
2022-12-08T14:24:31.638Z,11.90
2022-12-08T14:27:02.834Z,11.57
2022-12-08T14:29:40.618Z,11.17
2022-12-08T14:32:24.689Z,12.70
2022-12-08T14:35:00.958Z,11.60
2022-12-08T14:37:32.050Z,12.07
2022-12-08T14:40:03.764Z,11.07
2022-12-08T14:42:32.483Z,10.77
2022-12-08T14:45:06.564Z,12.47
2022-12-08T14:47:35.621Z,12.27
2022-12-08T14:50:28.827Z,11.47
2022-12-08T14:52:59.156Z,13.00
2022-12-08T14:55:28.143Z,13.60
2022-12-08T14:57:56.528Z,14.43
2022-12-08T15:00:25.964Z,15.97
2022-12-08T15:02:55.222Z,14.80
2022-12-08T15:05:33.883Z,15.97
2022-12-08T15:08:05.427Z,15.63
2022-12-08T15:10:38.017Z,16.23
2022-12-08T15:13:22.003Z,15.23
2022-12-08T15:15:52.513Z,14.77
2022-12-08T15:18:29.820Z,13.80
2022-12-08T15:21:03.834Z,14.73
2022-12-08T15:23:39.367Z,13.80
2022-12-08T15:26:08.272Z,14.23
2022-12-08T15:28:36.651Z,13.03
2022-12-08T15:31:05.554Z,13.47
2022-12-08T15:33:33.887Z,14.13
2022-12-08T15:36:02.583Z,14.13
2022-12-08T15:38:31.263Z,14.87
2022-12-08T15:41:01.465Z,13.77
2022-12-08T15:43:31.736Z,16.63
2022-12-08T15:46:00.623Z,13.27
2022-12-08T15:48:30.869Z,14.10
2022-12-08T15:50:59.996Z,16.80
2022-12-08T15:53:28.399Z,14.93
2022-12-08T15:56:26.268Z,14.90
2022-12-08T15:58:56.185Z,17.07
2022-12-08T16:01:26.534Z,14.93
2022-12-08T16:09:38.395Z,16.80
2022-12-08T16:12:25.997Z,18.33
2022-12-08T16:17:44.316Z,18.27
2022-12-08T16:20:15.557Z,17.63
2022-12-08T16:22:56.728Z,18.30
2022-12-08T16:25:52.656Z,16.33
2022-12-08T16:31:15.817Z,13.90
2022-12-08T16:33:46.325Z,15.07
2022-12-08T16:36:14.708Z,16.67
2022-12-08T16:38:43.555Z,14.23
2022-12-08T16:41:31.922Z,13.87
2022-12-08T16:44:02.800Z,14.43
2022-12-08T16:46:32.774Z,15.50
2022-12-08T16:49:01.576Z,16.53
2022-12-08T16:51:30.051Z,15.60
2022-12-08T16:53:58.932Z,17.03
2022-12-08T16:56:32.523Z,15.60
2022-12-08T16:59:02.728Z,16.13
2022-12-08T17:01:32.876Z,15.60
2022-12-08T17:04:29.750Z,16.37
2022-12-08T17:06:52.694Z,15.10
2022-12-08T17:09:21.290Z,14.60
2022-12-08T17:11:49.547Z,14.77
2022-12-08T17:14:18.533Z,14.13
2022-12-08T17:16:48.256Z,14.37
2022-12-08T17:19:17.699Z,14.30
2022-12-08T17:21:46.102Z,14.03
2022-12-08T17:24:20.243Z,14.90
2022-12-08T17:26:51.629Z,11.13
2022-12-08T17:29:20.299Z,13.63
2022-12-08T17:31:50.187Z,13.13
2022-12-08T17:34:19.119Z,12.67
2022-12-08T17:36:47.492Z,12.83
2022-12-08T17:39:18.703Z,13.70
2022-12-08T17:41:48.127Z,13.10
2022-12-08T17:44:19.135Z,13.97
2022-12-08T17:46:53.043Z,14.37
2022-12-08T17:49:24.507Z,13.43
2022-12-08T17:51:55.369Z,14.63
2022-12-08T17:54:24.593Z,14.43
2022-12-08T17:56:53.417Z,14.67
2022-12-08T17:59:22.190Z,14.73
2022-12-08T18:01:53.154Z,14.23
2022-12-08T18:04:22.152Z,15.13
2022-12-08T18:06:50.635Z,15.47
2022-12-08T18:09:19.865Z,15.33
2022-12-08T18:11:48.375Z,15.50
2022-12-08T18:14:17.638Z,13.90
2022-12-08T18:16:47.261Z,16.17
2022-12-08T18:19:17.347Z,16.43
2022-12-08T18:21:45.889Z,16.43
2022-12-08T18:24:19.320Z,16.60
2022-12-08T18:26:47.793Z,15.93
2022-12-08T18:29:16.661Z,16.97
2022-12-08T18:31:44.953Z,15.97
2022-12-08T18:34:13.549Z,17.00
2022-12-08T18:36:43.559Z,14.77
2022-12-08T18:39:22.559Z,15.57
2022-12-08T18:41:51.026Z,15.30
2022-12-08T18:44:19.899Z,18.10
2022-12-08T18:46:48.701Z,15.10
2022-12-08T18:49:19.044Z,17.17
2022-12-08T18:51:48.756Z,15.03
2022-12-08T18:54:17.625Z,15.00
2022-12-08T18:56:45.964Z,15.10
2022-12-08T18:59:14.671Z,15.00
2022-12-08T19:01:43.516Z,15.10
2022-12-08T19:04:27.801Z,14.50
2022-12-08T19:06:58.305Z,13.23
2022-12-08T19:09:28.907Z,14.67
2022-12-08T19:11:57.669Z,14.00
2022-12-08T19:14:28.527Z,14.17
2022-12-08T19:16:58.233Z,13.37
2022-12-08T19:19:27.453Z,14.73
2022-12-08T19:21:57.311Z,14.33
2022-12-08T19:24:26.283Z,14.50
2022-12-08T19:26:54.724Z,15.07
2022-12-08T19:29:23.387Z,17.13
2022-12-08T19:31:51.803Z,17.10
2022-12-08T19:34:20.589Z,17.03
2022-12-08T19:36:49.059Z,16.70
2022-12-08T19:39:38.252Z,18.20
2022-12-08T19:42:31.999Z,17.97
2022-12-08T19:45:03.489Z,17.37
2022-12-08T19:47:32.212Z,17.90
2022-12-08T19:50:14.844Z,18.43
2022-12-08T19:52:43.718Z,17.63
2022-12-08T19:55:13.966Z,16.30
2022-12-08T19:57:42.641Z,15.90
2022-12-08T20:00:14.667Z,16.03
2022-12-08T20:02:43.140Z,15.97
2022-12-08T20:05:13.336Z,16.80
2022-12-08T20:07:41.782Z,16.33
2022-12-08T20:10:16.811Z,16.33
2022-12-08T20:12:45.396Z,16.70
2022-12-08T20:15:14.867Z,17.80
2022-12-08T20:17:45.390Z,17.13
2022-12-08T20:20:15.158Z,17.23
2022-12-08T20:22:45.309Z,18.40
2022-12-08T20:25:15.765Z,18.80
2022-12-08T20:27:44.286Z,18.53
2022-12-08T20:30:17.085Z,18.17
2022-12-08T20:32:46.033Z,16.27
2022-12-08T20:35:15.705Z,16.07
2022-12-08T20:37:47.041Z,17.27
2022-12-08T20:40:17.240Z,16.13
2022-12-08T20:42:45.669Z,17.47
2022-12-08T20:45:14.301Z,16.97
2022-12-08T20:47:42.677Z,18.33
2022-12-08T20:50:11.983Z,16.20
2022-12-08T20:52:40.611Z,17.37
2022-12-08T20:55:10.579Z,16.83
2022-12-08T20:57:43.010Z,16.63
2022-12-08T21:00:12.920Z,16.13
2022-12-08T21:02:47.690Z,15.70
2022-12-08T21:05:20.508Z,16.20
2022-12-08T21:07:49.640Z,15.83
2022-12-08T21:10:21.231Z,15.43
2022-12-08T21:12:51.028Z,15.43
2022-12-08T21:15:19.901Z,17.90
2022-12-08T21:17:48.425Z,18.10
2022-12-08T21:20:17.465Z,17.77
2022-12-08T21:22:45.900Z,17.87
2022-12-08T21:25:14.649Z,18.67
2022-12-08T21:27:42.966Z,17.90
2022-12-08T21:30:14.461Z,19.60
2022-12-08T21:32:43.171Z,17.87
2022-12-08T21:35:12.481Z,18.37
2022-12-08T21:37:41.049Z,17.90
2022-12-08T21:40:11.816Z,18.60
2022-12-08T21:42:46.537Z,17.73
2022-12-08T21:45:18.849Z,17.93
2022-12-08T21:47:48.920Z,17.30
2022-12-08T21:50:19.011Z,21.90
2022-12-08T21:52:50.349Z,18.50
2022-12-08T21:55:20.347Z,18.97
2022-12-08T21:57:48.866Z,18.17
2022-12-08T22:00:20.676Z,17.83
2022-12-08T22:02:49.409Z,16.67
2022-12-08T22:05:18.348Z,16.77
2022-12-08T22:07:46.839Z,16.27
2022-12-08T22:10:15.758Z,16.53
2022-12-08T22:12:44.354Z,15.87
2022-12-08T22:15:14.146Z,15.17
2022-12-08T22:17:45.270Z,14.83
2022-12-08T22:20:16.331Z,13.07
2022-12-08T22:22:45.914Z,14.63
2022-12-08T22:25:14.682Z,11.43
2022-12-08T22:27:43.132Z,11.27
2022-12-08T22:30:12.892Z,11.00
2022-12-08T22:32:43.159Z,12.37
2022-12-08T22:35:12.157Z,13.57
2022-12-08T22:37:40.855Z,12.03
2022-12-08T22:40:11.720Z,12.90
2022-12-08T22:42:40.645Z,13.20
2022-12-08T22:45:10.447Z,13.60
2022-12-08T22:47:38.920Z,13.50
2022-12-08T22:50:10.284Z,14.10
2022-12-08T22:52:39.651Z,13.13
2022-12-08T22:55:09.456Z,12.80
2022-12-08T22:57:37.856Z,12.47
2022-12-08T23:00:08.313Z,14.40
2022-12-08T23:02:38.885Z,13.77
2022-12-08T23:05:10.555Z,13.13
2022-12-08T23:07:39.737Z,14.23
2022-12-08T23:10:10.766Z,13.63
2022-12-08T23:12:39.710Z,13.57
2022-12-08T23:15:09.284Z,14.70
2022-12-08T23:17:37.940Z,13.90
2022-12-08T23:20:08.341Z,15.87
2022-12-08T23:22:38.851Z,15.67
2022-12-08T23:25:08.573Z,13.90
2022-12-08T23:27:38.457Z,12.80
2022-12-08T23:30:09.849Z,13.07
2022-12-08T23:32:39.081Z,13.20
2022-12-08T23:35:09.197Z,12.07
2022-12-08T23:37:39.265Z,11.93
2022-12-08T23:40:09.768Z,12.57
2022-12-08T23:42:38.541Z,12.27
2022-12-08T23:45:08.475Z,11.20
2022-12-08T23:47:37.228Z,13.23
2022-12-08T23:50:07.973Z,13.07
2022-12-08T23:52:39.846Z,13.00
2022-12-08T23:55:10.134Z,13.97
2022-12-08T23:57:39.186Z,14.03
